createdAt,value
2023-04-01T00:00:45.238Z,99050.22
2023-04-01T00:03:48.319Z,99043.31
2023-04-01T00:06:50.986Z,99052.84
2023-04-01T00:09:53.440Z,99039.75
2023-04-01T00:12:56.075Z,99043.19
2023-04-01T00:16:00.101Z,99039.69
2023-04-01T00:19:02.644Z,99044.06
2023-04-01T00:22:05.250Z,99037.94
2023-04-01T00:25:08.060Z,99038.69
2023-04-01T00:28:10.804Z,99033.41
2023-04-01T00:31:13.348Z,99042.97
2023-04-01T00:34:16.299Z,99040.38
2023-04-01T00:37:19.093Z,99024.75
2023-04-01T00:40:33.265Z,99027.34
2023-04-01T00:43:36.054Z,99027.38
2023-04-01T00:46:39.366Z,99029.16
2023-04-01T00:49:43.310Z,99014.34
2023-04-01T00:52:45.885Z,99023.00
2023-04-01T00:56:01.107Z,99018.59
2023-04-01T00:59:09.668Z,99023.84
2023-04-01T01:02:12.985Z,99010.81
2023-04-01T01:05:16.004Z,99012.59
2023-04-01T01:08:48.758Z,99028.31
2023-04-01T01:12:09.664Z,99033.56
2023-04-01T01:15:22.769Z,99033.63
2023-04-01T01:18:28.153Z,99020.59
2023-04-01T01:21:49.573Z,99026.59
2023-04-01T01:25:23.572Z,99021.38
2023-04-01T01:29:03.436Z,99031.72
2023-04-01T01:32:27.601Z,99020.38
2023-04-01T01:35:45.148Z,99003.91
2023-04-01T01:38:52.416Z,99014.38
2023-04-01T01:41:55.341Z,99015.16
2023-04-01T01:44:58.203Z,99009.97
2023-04-01T01:48:00.978Z,99014.34
2023-04-01T01:51:07.337Z,99009.06
2023-04-01T01:54:14.438Z,99015.09
2023-04-01T01:57:16.960Z,99006.50
2023-04-01T02:00:22.975Z,99006.41
2023-04-01T02:03:26.421Z,99006.44
2023-04-01T02:06:30.136Z,99010.81
2023-04-01T02:09:32.758Z,99009.94
2023-04-01T02:12:35.498Z,99010.75
2023-04-01T02:15:41.410Z,98999.44
2023-04-01T02:18:44.715Z,98999.56
2023-04-01T02:21:47.266Z,98990.84
2023-04-01T02:24:50.976Z,98986.44
2023-04-01T02:27:53.367Z,98989.09
2023-04-01T02:30:56.156Z,98990.75
2023-04-01T02:33:58.644Z,98986.38
2023-04-01T02:37:01.436Z,98984.63
2023-04-01T02:40:07.449Z,98988.91
2023-04-01T02:43:09.944Z,98986.34
2023-04-01T02:46:12.475Z,98986.31
2023-04-01T02:49:15.293Z,98990.63
2023-04-01T02:52:17.809Z,98982.00
2023-04-01T02:55:20.407Z,98988.13
2023-04-01T02:58:22.927Z,98998.53
2023-04-01T03:01:25.697Z,98989.78
2023-04-01T03:04:28.203Z,98995.81
2023-04-01T03:07:30.766Z,98987.03
2023-04-01T03:10:33.646Z,98982.66
2023-04-01T03:13:36.504Z,98987.88
2023-04-01T03:16:39.013Z,98984.31
2023-04-01T03:19:42.052Z,98985.03
2023-04-01T03:22:45.510Z,98978.16
2023-04-01T03:25:48.423Z,98983.31
2023-04-01T03:28:51.816Z,98979.91
2023-04-01T03:31:54.331Z,98998.09
2023-04-01T03:34:56.957Z,99005.13
2023-04-01T03:37:59.605Z,99005.13
2023-04-01T03:41:02.348Z,99010.41
2023-04-01T03:44:05.464Z,99024.31
2023-04-01T03:47:10.146Z,99022.44
2023-04-01T03:50:12.634Z,99018.06
2023-04-01T03:53:16.333Z,99016.41
2023-04-01T03:56:21.508Z,99029.47
2023-04-01T03:59:24.071Z,99025.06
2023-04-01T04:02:26.900Z,99021.53
2023-04-01T04:05:29.696Z,99028.44
2023-04-01T04:08:32.347Z,99025.66
2023-04-01T04:11:34.842Z,99017.06
2023-04-01T04:14:38.274Z,99027.44
2023-04-01T04:17:40.984Z,99019.56
2023-04-01T04:20:49.576Z,99021.28
2023-04-01T04:23:52.551Z,99020.38
2023-04-01T04:26:56.376Z,99012.50
2023-04-01T04:29:58.847Z,99016.06
2023-04-01T04:33:01.888Z,99015.19
2023-04-01T04:36:05.361Z,99016.13
2023-04-01T04:39:08.151Z,99004.84
2023-04-01T04:42:13.398Z,99005.72
2023-04-01T04:45:16.104Z,99004.03
2023-04-01T04:48:28.188Z,99003.19
2023-04-01T04:51:30.672Z,98996.16
2023-04-01T04:54:33.411Z,99009.13
2023-04-01T04:57:37.824Z,99010.00
2023-04-01T05:00:40.545Z,99001.38
2023-04-01T05:03:47.161Z,99013.59
2023-04-01T05:06:50.744Z,99007.50
2023-04-01T05:09:53.722Z,99001.44
2023-04-01T05:12:56.309Z,99002.34
2023-04-01T05:15:59.490Z,99008.56
2023-04-01T05:19:02.320Z,99015.59
2023-04-01T05:22:05.541Z,99014.00
2023-04-01T05:25:08.408Z,99014.03
2023-04-01T05:28:10.955Z,99017.50
2023-04-01T05:31:13.768Z,99020.13
2023-04-01T05:34:19.642Z,99021.06
2023-04-01T05:37:23.969Z,99027.28
2023-04-01T05:40:27.001Z,99028.31
2023-04-01T05:43:30.864Z,99021.31
2023-04-01T05:46:38.138Z,99015.34
2023-04-01T05:49:48.084Z,99018.00
2023-04-01T05:52:50.956Z,99015.41
2023-04-01T05:55:53.744Z,99018.16
2023-04-01T05:58:56.373Z,99011.25
2023-04-01T06:02:00.232Z,99014.75
2023-04-01T06:05:23.174Z,99018.28
2023-04-01T06:08:26.414Z,99027.03
2023-04-01T06:12:09.360Z,99016.53
2023-04-01T06:15:26.600Z,99011.34
2023-04-01T06:18:37.807Z,99005.25
2023-04-01T06:21:56.988Z,99001.78
2023-04-01T06:25:30.637Z,99017.56
2023-04-01T06:28:58.869Z,99007.94
2023-04-01T06:32:22.601Z,99008.00
2023-04-01T06:35:47.439Z,99014.09
2023-04-01T06:39:11.062Z,99011.53
2023-04-01T06:42:38.841Z,99015.91
2023-04-01T06:45:56.947Z,99025.50
2023-04-01T06:49:36.723Z,99023.72
2023-04-01T06:53:21.123Z,99022.84
2023-04-01T06:56:43.750Z,99022.81
2023-04-01T06:59:56.154Z,99019.31
2023-04-01T07:03:17.411Z,99014.06
2023-04-01T07:06:36.764Z,99017.56
2023-04-01T07:09:41.340Z,99018.44
2023-04-01T07:13:05.933Z,99023.59
2023-04-01T07:16:41.007Z,99026.16
2023-04-01T07:19:52.259Z,99027.94
2023-04-01T07:23:03.737Z,99027.06
2023-04-01T07:26:24.365Z,99030.53
2023-04-01T07:29:38.776Z,99017.41
2023-04-01T07:32:45.524Z,99023.47
2023-04-01T07:36:12.187Z,99015.41
2023-04-01T07:39:36.032Z,99016.16
2023-04-01T07:43:02.667Z,99013.41
2023-04-01T07:46:07.432Z,99013.16
2023-04-01T07:49:15.511Z,99020.91
2023-04-01T07:52:34.445Z,99020.78
2023-04-01T07:55:51.460Z,99026.97
2023-04-01T07:59:04.479Z,99026.88
2023-04-01T08:02:36.125Z,99024.25
2023-04-01T08:05:58.797Z,99025.72
2023-04-01T08:09:05.715Z,99031.84
2023-04-01T08:12:52.727Z,99030.88
2023-04-01T08:16:23.164Z,99041.19
2023-04-01T08:19:40.574Z,99035.69
2023-04-01T08:22:44.634Z,99024.16
2023-04-01T08:26:02.705Z,99023.19
2023-04-01T08:29:18.658Z,99030.31
2023-04-01T08:32:28.078Z,99031.53
2023-04-01T08:35:38.297Z,99020.28
2023-04-01T08:39:05.531Z,99018.91
2023-04-01T08:42:37.661Z,99022.06
2023-04-01T08:46:03.192Z,99024.00
2023-04-01T08:49:18.315Z,99022.59
2023-04-01T08:52:43.888Z,99026.13
2023-04-01T08:56:26.712Z,99026.06
2023-04-01T09:00:13.738Z,99021.44
2023-04-01T09:03:46.734Z,99028.72
2023-04-01T09:07:19.592Z,99034.72
2023-04-01T09:10:25.914Z,99021.34
2023-04-01T09:13:50.220Z,99032.09
2023-04-01T09:16:52.733Z,99028.75
2023-04-01T09:20:26.047Z,99026.34
2023-04-01T09:24:06.955Z,99021.81
2023-04-01T09:27:41.586Z,99025.22
2023-04-01T09:31:06.968Z,99018.53
2023-04-01T09:34:37.199Z,99021.81
2023-04-01T09:37:49.624Z,99020.38
2023-04-01T09:40:58.892Z,99015.19
2023-04-01T09:44:27.742Z,99012.50
2023-04-01T09:48:08.178Z,99031.84
2023-04-01T09:51:13.987Z,99030.81
2023-04-01T09:54:48.788Z,99031.13
2023-04-01T09:58:13.536Z,99041.28
2023-04-01T10:01:45.153Z,99044.41
2023-04-01T10:05:20.664Z,99042.72
2023-04-01T10:08:41.775Z,99041.72
2023-04-01T10:11:50.625Z,99042.50
2023-04-01T10:15:12.760Z,99040.53
2023-04-01T10:18:26.886Z,99045.97
2023-04-01T10:21:36.621Z,99047.78
2023-04-01T10:25:13.425Z,99048.59
2023-04-01T10:28:38.116Z,99046.47
2023-04-01T10:31:59.219Z,99043.69
2023-04-01T10:35:36.563Z,99038.38
2023-04-01T10:38:40.038Z,99050.75
2023-04-01T10:41:57.835Z,99042.09
2023-04-01T10:45:52.267Z,99043.59
2023-04-01T10:49:16.058Z,99044.09
2023-04-01T10:52:39.525Z,99037.53
2023-04-01T10:56:32.344Z,99041.47
2023-04-01T11:00:18.895Z,99041.47
2023-04-01T11:03:57.074Z,99051.84
2023-04-01T11:07:55.828Z,99040.59
2023-04-01T11:11:30.079Z,99036.38
2023-04-01T11:14:54.848Z,99028.19
2023-04-01T11:18:29.793Z,99028.13
2023-04-01T11:22:10.783Z,99026.38
2023-04-01T11:25:42.709Z,99025.59
2023-04-01T11:29:10.290Z,99019.97
2023-04-01T11:32:27.947Z,99028.78
2023-04-01T11:35:44.166Z,99023.56
2023-04-01T11:38:57.096Z,99020.81
2023-04-01T11:42:38.495Z,99020.91
2023-04-01T11:46:07.679Z,99024.97
2023-04-01T11:49:24.516Z,99030.75
2023-04-01T11:52:54.937Z,99037.69
2023-04-01T11:56:20.206Z,99037.25
2023-04-01T11:59:25.789Z,99043.53
2023-04-01T12:02:51.647Z,99054.28
2023-04-01T12:06:07.350Z,99050.75
2023-04-01T12:09:10.082Z,99041.84
2023-04-01T12:12:15.632Z,99043.63
2023-04-01T12:15:38.066Z,99047.13
2023-04-01T12:18:51.409Z,99047.78
2023-04-01T12:22:23.124Z,99043.13
2023-04-01T12:25:37.719Z,99040.84
2023-04-01T12:29:17.903Z,99037.31
2023-04-01T12:32:44.928Z,99038.72
2023-04-01T12:36:19.737Z,99042.44
2023-04-01T12:39:45.709Z,99044.22
2023-04-01T12:43:03.509Z,99041.53
2023-04-01T12:46:37.784Z,99027.59
2023-04-01T12:49:40.384Z,99043.63
2023-04-01T12:52:57.163Z,99040.59
2023-04-01T12:55:59.877Z,99037.16
2023-04-01T12:59:17.516Z,99021.97
2023-04-01T13:07:47.625Z,99018.75
2023-04-01T13:10:58.249Z,99012.91
2023-04-01T13:14:03.744Z,99020.50
2023-04-01T13:17:17.671Z,99015.84
2023-04-01T13:21:07.111Z,99007.06
2023-04-01T13:24:18.856Z,99006.94
2023-04-01T13:27:31.092Z,99009.91
2023-04-01T13:30:56.946Z,99011.25
2023-04-01T13:34:11.551Z,99014.53
2023-04-01T13:37:51.395Z,99022.63
2023-04-01T13:41:10.527Z,99019.94
2023-04-01T13:44:24.178Z,99024.31
2023-04-01T13:47:48.040Z,99015.13
2023-04-01T13:51:16.695Z,99016.78
2023-04-01T13:54:44.144Z,99018.19
2023-04-01T13:58:14.741Z,99023.97
2023-04-01T14:01:34.090Z,99030.66
2023-04-01T14:04:51.126Z,99028.97
2023-04-01T14:08:05.763Z,99024.94
2023-04-01T14:11:33.940Z,99033.47
2023-04-01T14:15:07.524Z,99037.03
2023-04-01T14:18:16.319Z,99035.56
2023-04-01T14:21:25.036Z,99037.75
2023-04-01T14:25:06.791Z,99043.97
2023-04-01T14:28:31.112Z,99031.13
2023-04-01T14:31:52.353Z,99038.03
2023-04-01T14:35:01.329Z,99047.81
2023-04-01T14:38:46.226Z,99041.75
2023-04-01T14:42:21.398Z,99043.53
2023-04-01T14:46:02.285Z,99042.94
2023-04-01T14:49:42.909Z,99040.34
2023-04-01T14:53:12.993Z,99036.34
2023-04-01T14:56:15.583Z,99030.38
2023-04-01T14:59:24.110Z,99032.06
2023-04-01T15:02:45.488Z,99027.88
2023-04-01T15:06:07.081Z,99034.75
2023-04-01T15:09:16.813Z,99024.94
2023-04-01T15:12:22.682Z,99033.25
2023-04-01T15:15:31.761Z,99031.97
2023-04-01T15:18:49.644Z,99027.22
2023-04-01T15:21:55.174Z,99032.34
2023-04-01T15:25:15.505Z,99032.38
2023-04-01T15:28:27.383Z,99039.66
2023-04-01T15:31:36.259Z,99041.22
2023-04-01T15:34:43.034Z,99041.47
2023-04-01T15:37:58.720Z,99042.28
2023-04-01T15:41:30.824Z,99048.69
2023-04-01T15:44:51.741Z,99043.09
2023-04-01T15:47:54.339Z,99047.16
2023-04-01T15:51:14.134Z,99051.63
2023-04-01T15:54:34.262Z,99051.16
2023-04-01T15:57:48.891Z,99057.63
2023-04-01T16:00:58.286Z,99057.53
2023-04-01T16:04:12.750Z,99064.25
2023-04-01T16:07:39.647Z,99055.03
2023-04-01T16:11:15.866Z,99058.72
2023-04-01T16:14:40.836Z,99061.13
2023-04-01T16:17:56.850Z,99062.59
2023-04-01T16:21:01.770Z,99059.25
2023-04-01T16:24:28.601Z,99068.16
2023-04-01T16:27:38.253Z,99068.16
2023-04-01T16:31:01.041Z,99074.38
2023-04-01T16:34:09.812Z,99073.44
2023-04-01T16:37:22.983Z,99078.00
2023-04-01T16:40:37.556Z,99077.28
2023-04-01T16:43:47.443Z,99081.69
2023-04-01T16:46:58.044Z,99087.91
2023-04-01T16:50:24.428Z,99086.31
2023-04-01T16:53:55.107Z,99084.66
2023-04-01T16:57:04.416Z,99089.38
2023-04-01T17:00:17.500Z,99087.69
2023-04-01T17:03:26.220Z,99087.78
2023-04-01T17:07:01.971Z,99098.28
2023-04-01T17:10:25.972Z,99099.38
2023-04-01T17:14:02.023Z,99100.38
2023-04-01T17:17:33.367Z,99103.97
2023-04-01T17:20:59.286Z,99115.50
2023-04-01T17:24:19.985Z,99116.53
2023-04-01T17:27:33.838Z,99110.44
2023-04-01T17:30:44.375Z,99121.06
2023-04-01T17:34:08.344Z,99119.34
2023-04-01T17:37:25.936Z,99123.72
2023-04-01T17:40:36.717Z,99119.38
2023-04-01T17:43:45.290Z,99129.06
2023-04-01T17:47:01.263Z,99130.03
2023-04-01T17:50:06.588Z,99125.69
2023-04-01T17:53:33.959Z,99124.88
2023-04-01T17:57:04.201Z,99134.50
2023-04-01T18:00:12.896Z,99134.53
2023-04-01T18:03:40.597Z,99150.28
2023-04-01T18:06:57.326Z,99145.94
2023-04-01T18:10:24.880Z,99154.69
2023-04-01T18:13:30.601Z,99152.06
2023-04-01T18:17:17.619Z,99166.94
2023-04-01T18:20:57.073Z,99170.44
2023-04-01T18:24:02.693Z,99171.31
2023-04-01T18:27:12.443Z,99173.97
2023-04-01T18:30:36.675Z,99172.25
2023-04-01T18:33:44.084Z,99181.00
2023-04-01T18:37:05.559Z,99185.34
2023-04-01T18:40:13.023Z,99193.22
2023-04-01T18:43:24.328Z,99192.34
2023-04-01T18:47:04.595Z,99194.97
2023-04-01T18:50:22.451Z,99207.22
2023-04-01T18:53:40.815Z,99198.44
2023-04-01T18:56:44.300Z,99205.47
2023-04-01T18:59:54.879Z,99210.66
2023-04-01T19:03:22.294Z,99206.31
2023-04-01T19:06:35.158Z,99214.13
2023-04-01T19:09:50.587Z,99213.25
2023-04-01T19:13:23.830Z,99214.13
2023-04-01T19:16:39.206Z,99210.59
2023-04-01T19:20:00.757Z,99209.75
2023-04-01T19:23:29.350Z,99215.84
2023-04-01T19:26:35.060Z,99217.59
2023-04-01T19:29:57.316Z,99217.59
2023-04-01T19:33:19.632Z,99221.94
2023-04-01T19:36:46.379Z,99229.69
2023-04-01T19:39:51.083Z,99224.41
2023-04-01T19:43:15.060Z,99227.00
2023-04-01T19:46:30.047Z,99224.38
2023-04-01T19:49:56.380Z,99239.22
2023-04-01T19:53:00.607Z,99240.13
2023-04-01T19:56:13.706Z,99237.47
2023-04-01T19:59:25.206Z,99240.91
2023-04-01T20:02:31.331Z,99239.19
2023-04-01T20:05:52.044Z,99253.13
2023-04-01T20:09:21.969Z,99244.31
2023-04-01T20:12:35.586Z,99255.59
2023-04-01T20:15:40.891Z,99251.28
2023-04-01T20:18:57.704Z,99249.47
2023-04-01T20:22:01.666Z,99253.75
2023-04-01T20:25:31.239Z,99245.81
2023-04-01T20:29:12.256Z,99251.91
2023-04-01T20:32:17.924Z,99248.47
2023-04-01T20:35:38.907Z,99257.19
2023-04-01T20:39:00.017Z,99260.53
2023-04-01T20:42:41.421Z,99262.06
2023-04-01T20:45:52.945Z,99252.44
2023-04-01T20:49:17.684Z,99263.66
2023-04-01T20:52:32.085Z,99256.56
2023-04-01T20:55:53.192Z,99267.09
2023-04-01T20:59:20.554Z,99275.88
2023-04-01T21:02:34.084Z,99281.84
2023-04-01T21:06:07.631Z,99286.31
2023-04-01T21:09:32.113Z,99292.31
2023-04-01T21:13:12.067Z,99285.03
2023-04-01T21:16:42.896Z,99292.84
2023-04-01T21:20:10.638Z,99291.78
2023-04-01T21:23:25.654Z,99288.25
2023-04-01T21:26:54.373Z,99288.31
2023-04-01T21:30:03.460Z,99286.34
2023-04-01T21:33:12.113Z,99286.44
2023-04-01T21:36:41.946Z,99295.16
2023-04-01T21:39:54.122Z,99296.69
2023-04-01T21:43:24.907Z,99297.38
2023-04-01T21:46:46.244Z,99311.28
2023-04-01T21:49:54.430Z,99302.31
2023-04-01T21:53:38.370Z,99299.78
2023-04-01T21:57:04.814Z,99303.31
2023-04-01T22:00:39.580Z,99314.56
2023-04-01T22:03:42.043Z,99310.13
2023-04-01T22:06:56.430Z,99302.38
2023-04-01T22:10:36.432Z,99304.28
2023-04-01T22:13:50.558Z,99309.59
2023-04-01T22:17:14.696Z,99312.28
2023-04-01T22:20:33.401Z,99317.66
2023-04-01T22:23:49.028Z,99315.91
2023-04-01T22:27:02.944Z,99322.91
2023-04-01T22:30:17.758Z,99323.06
2023-04-01T22:33:26.360Z,99311.78
2023-04-01T22:36:32.383Z,99316.28
2023-04-01T22:39:56.420Z,99326.88
2023-04-01T22:43:13.838Z,99328.72
2023-04-01T22:46:31.736Z,99339.41
2023-04-01T22:49:39.339Z,99329.16
2023-04-01T22:52:46.912Z,99336.94
2023-04-01T22:55:53.127Z,99341.28
2023-04-01T22:59:07.497Z,99337.81
2023-04-01T23:02:14.977Z,99346.66
2023-04-01T23:05:19.675Z,99350.06
2023-04-01T23:08:40.939Z,99363.13
2023-04-01T23:12:06.550Z,99352.56
2023-04-01T23:15:13.272Z,99357.91
2023-04-01T23:18:37.444Z,99366.81
2023-04-01T23:21:50.869Z,99361.47
2023-04-01T23:25:01.988Z,99357.06
2023-04-01T23:28:17.080Z,99355.19
2023-04-01T23:31:36.899Z,99354.28
2023-04-01T23:34:39.540Z,99357.66
2023-04-01T23:37:42.080Z,99364.50
2023-04-01T23:40:44.924Z,99365.47
2023-04-01T23:43:47.337Z,99375.03
2023-04-01T23:46:49.762Z,99379.47
2023-04-01T23:49:53.296Z,99383.97
2023-04-01T23:53:01.500Z,99399.50
2023-04-01T23:56:04.072Z,99393.47
2023-04-01T23:59:10.489Z,99396.91
